Time;durP1;ratioP1;P1;durP2;ratioP2;P2;SDS_P1;SDS_P2;PMS_P1;PMS_P2;Temp;Humidity;BMP_temperature;BMP_pressure;BME280_temperature;BME280_humidity;BME280_pressure;Samples;Min_cycle;Max_cycle;Signal;HPM_P1;HPM_P2
2022/09/24 00:01:20;;;;;;;14.35;13.00;;;;;;;-141.48;100.00;69781.59;5222163;28;20035;-67
2022/09/24 00:03:56;;;;;;;16.17;14.88;;;;;;;-141.48;100.00;69781.59;5221974;28;20025;-67
2022/09/24 00:06:29;;;;;;;15.05;13.52;;;;;;;-141.48;100.00;69781.59;5222338;28;20074;-67
2022/09/24 00:08:59;;;;;;;19.08;14.00;;;;;;;-141.48;100.00;69781.59;5221980;28;20196;-68
2022/09/24 00:11:31;;;;;;;14.35;13.32;;;;;;;-141.48;100.00;69781.59;5222052;28;20184;-66
2022/09/24 00:14:02;;;;;;;15.88;14.48;;;;;;;-141.48;100.00;69781.59;5221649;28;20060;-66
2022/09/24 00:16:33;;;;;;;14.50;13.23;;;;;;;-141.48;100.00;69781.59;5221815;28;20060;-67
2022/09/24 00:19:04;;;;;;;16.02;14.45;;;;;;;-141.48;100.00;69781.59;5221705;28;20160;-67
2022/09/24 00:21:36;;;;;;;17.00;13.82;;;;;;;-141.48;100.00;69781.59;5221707;28;20112;-68
2022/09/24 00:27:06;;;;;;;13.63;12.48;;;;;;;-141.48;100.00;69781.59;5193777;28;20064;-68
2022/09/24 00:29:37;;;;;;;16.05;14.65;;;;;;;-141.48;100.00;69781.59;5222946;28;20408;-67
2022/09/24 00:32:16;;;;;;;15.20;13.52;;;;;;;-141.48;100.00;69781.59;5221580;28;20082;-68
2022/09/24 00:35:06;;;;;;;18.88;17.02;;;;;;;-141.48;100.00;69781.59;5220920;28;20065;-67
2022/09/24 00:37:37;;;;;;;17.05;15.65;;;;;;;-141.48;100.00;69781.59;5221599;28;20111;-68
2022/09/24 00:40:08;;;;;;;16.00;14.48;;;;;;;-141.48;100.00;69781.59;5221384;28;20105;-67
2022/09/24 00:42:38;;;;;;;15.43;14.25;;;;;;;-141.48;100.00;69781.59;5221525;28;20067;-68
2022/09/24 00:45:09;;;;;;;18.35;16.45;;;;;;;-141.48;100.00;69781.59;5221329;28;20087;-68
2022/09/24 00:47:41;;;;;;;19.25;16.08;;;;;;;-141.48;100.00;69781.59;5222865;28;20511;-69
2022/09/24 00:50:33;;;;;;;16.60;15.20;;;;;;;-141.48;100.00;69781.59;5221428;28;20365;-68
2022/09/24 00:53:09;;;;;;;15.73;14.25;;;;;;;-141.48;100.00;69781.59;5223118;28;20029;-70
2022/09/24 00:55:43;;;;;;;18.10;16.42;;;;;;;-141.48;100.00;69781.59;5221325;28;20518;-68
2022/09/24 00:58:13;;;;;;;16.58;15.23;;;;;;;-141.48;100.00;69781.59;5221413;28;20398;-68
2022/09/24 01:00:44;;;;;;;16.23;14.82;;;;;;;-141.48;100.00;69781.59;5220972;28;20069;-67
2022/09/24 01:03:22;;;;;;;18.58;16.85;;;;;;;-141.48;100.00;69781.59;5220951;28;20033;-67
2022/09/24 01:05:55;;;;;;;17.55;15.68;;;;;;;-141.48;100.00;69781.59;5221338;28;20041;-68
2022/09/24 01:08:25;;;;;;;19.38;17.55;;;;;;;-141.48;100.00;69781.59;5222719;28;20028;-69
2022/09/24 01:11:11;;;;;;;20.38;18.63;;;;;;;-141.48;100.00;69781.59;5220960;28;20370;-69
2022/09/24 01:14:03;;;;;;;20.35;18.63;;;;;;;-141.48;100.00;69781.59;5220962;28;20033;-68
2022/09/24 01:16:55;;;;;;;21.85;19.90;;;;;;;-141.48;100.00;69781.59;5221500;28;20120;-68
2022/09/24 01:20:03;;;;;;;24.15;21.88;;;;;;;-141.48;100.00;69781.59;5223355;28;20072;-68
2022/09/24 01:23:02;;;;;;;24.98;22.63;;;;;;;-141.48;100.00;69781.59;5221567;28;20029;-66
2022/09/24 01:26:00;;;;;;;27.13;24.65;;;;;;;-141.48;100.00;69781.59;5221450;28;20523;-67
2022/09/24 01:28:39;;;;;;;27.23;24.67;;;;;;;-141.48;100.00;69781.59;5221207;28;20037;-67
2022/09/24 01:31:17;;;;;;;27.27;24.60;;;;;;;-141.48;100.00;69781.59;5224291;28;20025;-67
2022/09/24 01:33:53;;;;;;;26.88;24.50;;;;;;;-141.48;100.00;69781.59;5226510;28;20111;-67
2022/09/24 01:36:26;;;;;;;27.50;24.75;;;;;;;-141.48;100.00;69781.59;5225399;28;20071;-68
2022/09/24 01:38:59;;;;;;;27.67;25.40;;;;;;;-141.48;100.00;69781.59;5225387;28;20057;-67
2022/09/24 01:41:41;;;;;;;29.08;26.27;;;;;;;-141.48;100.00;69781.59;5225795;28;20035;-66
2022/09/24 01:44:12;;;;;;;36.20;29.38;;;;;;;-141.48;100.00;69781.59;5225533;28;20028;-66
2022/09/24 01:46:43;;;;;;;31.30;28.73;;;;;;;-141.48;100.00;69781.59;5225654;28;20032;-65
2022/09/24 01:49:13;;;;;;;31.42;28.75;;;;;;;-141.48;100.00;69781.59;5228234;28;20048;-68
2022/09/24 01:51:57;;;;;;;30.67;28.10;;;;;;;-141.48;100.00;69781.59;5226094;28;20107;-65
2022/09/24 01:54:36;;;;;;;28.80;26.05;;;;;;;-141.48;100.00;69781.59;5225539;28;20112;-69
2022/09/24 01:57:30;;;;;;;30.35;27.60;;;;;;;-141.48;100.00;69781.59;5226050;28;20040;-65
2022/09/24 02:00:08;;;;;;;31.17;26.50;;;;;;;-141.48;100.00;69781.59;5226319;28;20429;-65
2022/09/24 02:03:03;;;;;;;26.13;23.92;;;;;;;-141.48;100.00;69781.59;5226201;28;20020;-65
2022/09/24 02:05:38;;;;;;;30.17;27.52;;;;;;;-141.48;100.00;69781.59;5225867;28;20021;-65
2022/09/24 02:08:33;;;;;;;24.38;22.10;;;;;;;-141.48;100.00;69781.59;5226801;28;20025;-65
2022/09/24 02:11:24;;;;;;;26.27;23.98;;;;;;;-141.48;100.00;69781.59;5226109;28;20117;-64
2022/09/24 02:13:59;;;;;;;27.60;24.90;;;;;;;-141.48;100.00;69781.59;5225090;28;20338;-65
2022/09/24 02:16:35;;;;;;;28.38;25.40;;;;;;;-141.48;100.00;69781.59;5226381;28;20090;-64
2022/09/24 02:19:11;;;;;;;27.80;25.10;;;;;;;-141.48;100.00;69781.59;5226819;28;20025;-65
2022/09/24 02:21:45;;;;;;;28.10;25.45;;;;;;;-141.48;100.00;69781.59;5225370;28;20040;-65
2022/09/24 02:24:23;;;;;;;29.05;26.33;;;;;;;-141.48;100.00;69781.59;5226722;28;20120;-68
2022/09/24 02:26:54;;;;;;;28.80;25.88;;;;;;;-141.48;100.00;69781.59;5225484;28;20105;-66
2022/09/24 02:29:24;;;;;;;28.80;26.40;;;;;;;-141.48;100.00;69781.59;5225445;28;20105;-66
2022/09/24 02:31:57;;;;;;;29.17;26.65;;;;;;;-141.48;100.00;69781.59;5225874;28;20515;-66
2022/09/24 02:34:37;;;;;;;29.17;26.52;;;;;;;-141.48;100.00;69781.59;5225399;28;20033;-68
2022/09/24 02:37:11;;;;;;;28.27;26.02;;;;;;;-141.48;100.00;69781.59;5225834;28;20016;-66
2022/09/24 02:39:42;;;;;;;24.35;22.10;;;;;;;-141.48;100.00;69781.59;5227046;28;20021;-66
2022/09/24 02:42:14;;;;;;;27.35;24.75;;;;;;;-141.48;100.00;69781.59;5224538;28;20025;-67
2022/09/24 02:44:46;;;;;;;27.08;24.48;;;;;;;-141.48;100.00;69781.59;5224791;28;20053;-66
2022/09/24 02:47:17;;;;;;;29.05;24.25;;;;;;;-141.48;100.00;69781.59;5225113;28;20025;-67
2022/09/24 02:49:48;;;;;;;23.67;21.63;;;;;;;-141.48;100.00;69781.59;5223776;28;20474;-66
2022/09/24 02:52:19;;;;;;;23.95;21.85;;;;;;;-141.48;100.00;69781.59;5225123;28;20027;-68
2022/09/24 02:54:49;;;;;;;26.38;23.90;;;;;;;-141.48;100.00;69781.59;5225082;28;20590;-66
2022/09/24 02:57:20;;;;;;;26.20;23.80;;;;;;;-141.48;100.00;69781.59;5226661;28;20021;-66
2022/09/24 02:59:50;;;;;;;25.75;23.35;;;;;;;-141.48;100.00;69781.59;5224459;28;20075;-66
2022/09/24 03:02:21;;;;;;;25.65;23.42;;;;;;;-141.48;100.00;69781.59;5225312;28;20021;-67
2022/09/24 03:04:52;;;;;;;21.17;19.35;;;;;;;-141.48;100.00;69781.59;5223247;28;20083;-65
2022/09/24 03:07:22;;;;;;;22.90;20.65;;;;;;;-141.48;100.00;69781.59;5224875;28;20104;-65
2022/09/24 03:09:53;;;;;;;22.02;20.17;;;;;;;-141.48;100.00;69781.59;5224439;28;20037;-65
2022/09/24 03:12:23;;;;;;;24.85;22.38;;;;;;;-141.48;100.00;69781.59;5223732;28;20056;-65
2022/09/24 03:14:54;;;;;;;25.05;23.13;;;;;;;-141.48;100.00;69781.59;5225324;28;20044;-67
2022/09/24 03:17:24;;;;;;;21.35;19.25;;;;;;;-141.48;100.00;69781.59;5223808;28;20439;-65
2022/09/24 03:19:55;;;;;;;21.67;19.90;;;;;;;-141.48;100.00;69781.59;5223911;28;20043;-66
2022/09/24 03:22:25;;;;;;;21.35;19.45;;;;;;;-141.48;100.00;69781.59;5224467;28;20036;-65
2022/09/24 03:24:56;;;;;;;23.33;21.45;;;;;;;-141.48;100.00;69781.59;5225263;28;20021;-65
2022/09/24 03:27:26;;;;;;;23.83;21.60;;;;;;;-141.48;100.00;69781.59;5224054;28;20403;-66
2022/09/24 03:32:47;;;;;;;20.75;18.73;;;;;;;-141.48;100.00;69781.59;5249976;22;20094;-79
2022/09/24 03:35:18;;;;;;;23.08;21.17;;;;;;;-141.48;100.00;69781.59;5223438;28;20041;-80
2022/09/24 03:37:48;;;;;;;23.17;21.23;;;;;;;-141.48;100.00;69781.59;5242449;28;20017;-80
2022/09/24 03:40:19;;;;;;;23.90;21.90;;;;;;;-141.48;100.00;69781.59;5242222;28;20052;-80
2022/09/24 03:42:50;;;;;;;24.15;22.05;;;;;;;-141.48;100.00;69781.59;5232214;28;20017;-80
2022/09/24 03:45:20;;;;;;;20.42;18.30;;;;;;;-141.48;100.00;69781.59;5220430;28;20033;-80
2022/09/24 03:47:50;;;;;;;21.58;19.08;;;;;;;-141.48;100.00;69781.59;5221607;28;20029;-80
2022/09/24 03:50:21;;;;;;;21.38;19.50;;;;;;;-141.48;100.00;69781.59;5203325;28;20183;-80
2022/09/24 03:52:51;;;;;;;22.45;20.35;;;;;;;-141.48;100.00;69781.59;5203094;28;20025;-80
2022/09/24 03:55:22;;;;;;;22.50;20.55;;;;;;;-141.48;100.00;69781.59;5219546;28;20036;-80
2022/09/24 03:57:53;;;;;;;23.33;21.05;;;;;;;-141.48;100.00;69781.59;5220479;28;20487;-80
2022/09/24 04:00:23;;;;;;;24.05;21.48;;;;;;;-141.48;100.00;69781.59;5203041;28;20029;-80
2022/09/24 04:02:54;;;;;;;24.20;21.75;;;;;;;-141.48;100.00;69781.59;5202163;28;20029;-80
2022/09/24 04:05:24;;;;;;;24.23;21.45;;;;;;;-141.48;100.00;69781.59;5219121;28;20032;-80
2022/09/24 04:07:56;;;;;;;24.35;22.17;;;;;;;-141.48;100.00;69781.59;5202263;28;20021;-79
2022/09/24 04:10:27;;;;;;;22.08;19.92;;;;;;;-141.48;100.00;69781.59;5219605;28;20030;-81
2022/09/24 04:12:57;;;;;;;22.60;20.60;;;;;;;-141.48;100.00;69781.59;5218850;28;20029;-79
2022/09/24 04:15:28;;;;;;;24.23;21.88;;;;;;;-141.48;100.00;69781.59;5201401;28;20029;-79
2022/09/24 04:17:59;;;;;;;25.05;22.63;;;;;;;-141.48;100.00;69781.59;5220483;28;20030;-80
2022/09/24 04:20:29;;;;;;;24.05;21.40;;;;;;;-141.48;100.00;69781.59;5220857;28;20029;-80
2022/09/24 04:23:00;;;;;;;22.65;20.67;;;;;;;-141.48;100.00;69781.59;5221066;28;20479;-80
2022/09/24 04:25:32;;;;;;;22.35;20.50;;;;;;;-141.48;100.00;69781.59;5219550;28;20048;-80
2022/09/24 04:28:05;;;;;;;24.63;22.33;;;;;;;-141.48;100.00;69781.59;5220311;28;20028;-80
2022/09/24 04:30:37;;;;;;;25.73;23.45;;;;;;;-141.48;100.00;69781.59;5203165;28;20057;-80
2022/09/24 04:33:07;;;;;;;23.65;21.30;;;;;;;-141.48;100.00;69781.59;5219913;28;20025;-81
2022/09/24 04:35:38;;;;;;;23.55;21.38;;;;;;;-141.48;100.00;69781.59;5200856;28;20217;-81
2022/09/24 04:38:08;;;;;;;24.30;21.88;;;;;;;-141.48;100.00;69781.59;5219878;28;20077;-81
2022/09/24 04:40:39;;;;;;;24.38;22.25;;;;;;;-141.48;100.00;69781.59;5220326;28;20052;-80
2022/09/24 04:43:09;;;;;;;22.85;20.60;;;;;;;-141.48;100.00;69781.59;5221611;28;20048;-79
2022/09/24 04:45:42;;;;;;;22.38;20.50;;;;;;;-141.48;100.00;69781.59;5219200;28;20022;-79
2022/09/24 04:48:13;;;;;;;21.35;19.45;;;;;;;-141.48;100.00;69781.59;5202188;28;20029;-80
2022/09/24 04:50:44;;;;;;;22.80;20.85;;;;;;;-141.48;100.00;69781.59;5218376;28;20034;-78
2022/09/24 04:53:14;;;;;;;22.42;20.17;;;;;;;-141.48;100.00;69781.59;5200608;28;20089;-79
2022/09/24 04:55:45;;;;;;;23.10;20.67;;;;;;;-141.48;100.00;69781.59;5218569;28;20162;-79
2022/09/24 04:58:16;;;;;;;25.00;22.55;;;;;;;-141.48;100.00;69781.59;5200898;28;20044;-79
2022/09/24 05:00:46;;;;;;;22.38;20.35;;;;;;;-141.48;100.00;69781.59;5218527;28;20112;-81
2022/09/24 05:03:17;;;;;;;21.50;19.58;;;;;;;-141.48;100.00;69781.59;5218352;28;20104;-82
2022/09/24 05:05:49;;;;;;;19.40;17.30;;;;;;;-141.48;100.00;69781.59;5221198;28;20076;-81
2022/09/24 05:08:19;;;;;;;20.45;18.20;;;;;;;-141.48;100.00;69781.59;5223617;28;20093;-80
2022/09/24 05:10:49;;;;;;;22.70;20.55;;;;;;;-141.48;100.00;69781.59;5222562;28;20029;-80
2022/09/24 05:13:20;;;;;;;22.30;20.50;;;;;;;-141.48;100.00;69781.59;5222599;28;20052;-80
2022/09/24 05:15:50;;;;;;;23.02;20.90;;;;;;;-141.48;100.00;69781.59;5221218;28;20491;-80
2022/09/24 05:18:21;;;;;;;21.48;19.50;;;;;;;-141.48;100.00;69781.59;5220266;28;20025;-81
2022/09/24 05:20:51;;;;;;;23.10;20.90;;;;;;;-141.48;100.00;69781.59;5221218;28;20033;-82
2022/09/24 05:23:22;;;;;;;20.27;18.58;;;;;;;-141.48;100.00;69781.59;5224235;28;20030;-79
2022/09/24 05:28:41;;;;;;;21.30;18.83;;;;;;;-141.48;100.00;69781.59;5224294;28;20044;-80
2022/09/24 05:31:12;;;;;;;21.65;19.42;;;;;;;-141.48;100.00;69781.59;5224183;28;20017;-79
2022/09/24 05:33:43;;;;;;;24.85;19.65;;;;;;;-141.48;100.00;69781.59;5222311;28;20033;-80
2022/09/24 05:36:13;;;;;;;22.10;19.50;;;;;;;-141.48;100.00;69781.59;5207425;28;20089;-80
2022/09/24 05:38:44;;;;;;;23.90;19.90;;;;;;;-141.48;100.00;69781.59;5223403;28;20052;-80
2022/09/24 05:41:14;;;;;;;21.80;20.08;;;;;;;-141.48;100.00;69781.59;5224408;28;20017;-79
2022/09/24 05:43:45;;;;;;;25.83;23.52;;;;;;;-141.48;100.00;69781.59;5221395;28;20101;-79
2022/09/24 05:46:15;;;;;;;22.50;20.15;;;;;;;-141.48;100.00;69781.59;5225508;28;20040;-80
2022/09/24 05:48:45;;;;;;;21.92;19.92;;;;;;;-141.48;100.00;69781.59;5229118;28;20013;-80
2022/09/24 05:51:16;;;;;;;20.50;18.58;;;;;;;-141.48;100.00;69781.59;5227555;28;20021;-81
2022/09/24 05:53:47;;;;;;;20.02;18.23;;;;;;;-141.48;100.00;69781.59;5224285;28;20025;-80
2022/09/24 05:56:17;;;;;;;23.65;21.15;;;;;;;-141.48;100.00;69781.59;5225867;28;20092;-79
2022/09/24 05:58:49;;;;;;;21.38;19.42;;;;;;;-141.48;100.00;69781.59;5223671;28;20056;-79
2022/09/24 06:01:19;;;;;;;24.70;22.58;;;;;;;-141.48;100.00;69781.59;5223657;28;20036;-78
2022/09/24 06:03:49;;;;;;;26.98;24.55;;;;;;;-141.48;100.00;69781.59;5222100;28;20029;-79
2022/09/24 06:06:20;;;;;;;22.10;20.15;;;;;;;-141.48;100.00;69781.59;5205916;28;20506;-78
2022/09/24 06:08:51;;;;;;;22.90;20.50;;;;;;;-141.48;100.00;69781.59;5203002;28;20030;-79
2022/09/24 06:11:22;;;;;;;24.48;22.17;;;;;;;-141.48;100.00;69781.59;5223773;28;20375;-79
2022/09/24 06:13:52;;;;;;;22.88;20.80;;;;;;;-141.48;100.00;69781.59;5202685;28;20088;-79
2022/09/24 06:16:22;;;;;;;20.65;18.55;;;;;;;-141.48;100.00;69781.59;5217484;28;20449;-79
2022/09/24 06:18:53;;;;;;;26.42;23.92;;;;;;;-141.48;100.00;69781.59;5205328;28;20032;-86
2022/09/24 06:21:24;;;;;;;31.17;28.73;;;;;;;-141.48;100.00;69781.59;5203236;28;20083;-80
2022/09/24 06:23:54;;;;;;;25.88;23.45;;;;;;;-141.48;100.00;69781.59;5216374;28;20372;-80
2022/09/24 06:26:25;;;;;;;23.70;21.25;;;;;;;-141.48;100.00;69781.59;5216782;28;20017;-79
2022/09/24 06:28:55;;;;;;;22.13;19.90;;;;;;;-141.48;100.00;69781.59;5217543;28;20021;-80
2022/09/24 06:31:26;;;;;;;24.10;21.98;;;;;;;-141.48;100.00;69781.59;5219034;28;20017;-79
2022/09/24 06:33:56;;;;;;;24.13;21.67;;;;;;;-141.48;100.00;69781.59;5217401;28;20096;-79
2022/09/24 06:36:26;;;;;;;26.40;23.75;;;;;;;-141.48;100.00;69781.59;5217306;28;20032;-79
2022/09/24 06:38:57;;;;;;;22.77;20.73;;;;;;;-141.48;100.00;69781.59;5218159;28;20025;-80
2022/09/24 06:41:28;;;;;;;25.98;22.98;;;;;;;-141.48;100.00;69781.59;5199685;28;20022;-79
2022/09/24 06:43:58;;;;;;;22.83;20.67;;;;;;;-141.48;100.00;69781.59;5216638;28;20048;-81
2022/09/24 06:46:29;;;;;;;24.58;22.20;;;;;;;-141.48;100.00;69781.59;5218020;28;20045;-80
2022/09/24 06:48:59;;;;;;;24.58;22.08;;;;;;;-141.48;100.00;69781.59;5200430;28;20030;-81
2022/09/24 06:51:30;;;;;;;24.15;21.88;;;;;;;-141.48;100.00;69781.59;5200330;28;20044;-80
2022/09/24 06:54:00;;;;;;;25.27;22.90;;;;;;;-141.48;100.00;69781.59;5216562;28;20021;-79
2022/09/24 06:56:30;;;;;;;24.40;22.02;;;;;;;-141.48;100.00;69781.59;5218439;28;20493;-80
2022/09/24 06:59:01;;;;;;;23.80;21.55;;;;;;;-141.48;100.00;69781.59;5213802;28;20017;-78
2022/09/24 07:01:32;;;;;;;22.52;20.30;;;;;;;-141.48;100.00;69781.59;5214032;28;20203;-79
2022/09/24 07:04:02;;;;;;;24.35;22.08;;;;;;;-141.48;100.00;69781.59;5217908;28;20021;-81
2022/09/24 07:09:24;;;;;;;24.77;22.45;;;;;;;-141.48;100.00;69781.59;5217431;28;20507;-79
2022/09/24 07:11:57;;;;;;;21.20;19.33;;;;;;;-141.48;100.00;69781.59;5218350;28;20026;-79
2022/09/24 07:14:28;;;;;;;23.67;21.30;;;;;;;-141.48;100.00;69781.59;5201798;28;20021;-80
2022/09/24 07:16:58;;;;;;;23.40;21.48;;;;;;;-141.48;100.00;69781.59;5220167;28;20033;-79
2022/09/24 07:19:28;;;;;;;22.75;20.15;;;;;;;-141.48;100.00;69781.59;5222065;28;20021;-80
2022/09/24 07:21:59;;;;;;;21.60;19.73;;;;;;;-141.48;100.00;69781.59;5219838;28;20029;-80
2022/09/24 07:24:29;;;;;;;27.65;22.33;;;;;;;-141.48;100.00;69781.59;5218500;28;20026;-79
2022/09/24 07:27:03;;;;;;;22.70;20.05;;;;;;;-141.48;100.00;69781.59;5202461;28;20026;-79
2022/09/24 07:29:34;;;;;;;22.90;20.73;;;;;;;-141.48;100.00;69781.59;5219634;28;20026;-80
2022/09/24 07:32:05;;;;;;;21.30;19.23;;;;;;;-141.48;100.00;69781.59;5220268;28;20021;-79
2022/09/24 07:34:35;;;;;;;20.63;18.58;;;;;;;-141.48;100.00;69781.59;5218188;28;20033;-80
2022/09/24 07:37:06;;;;;;;25.17;22.40;;;;;;;-141.48;100.00;69781.59;5220141;28;20081;-82
2022/09/24 07:39:36;;;;;;;24.73;22.23;;;;;;;-141.48;100.00;69781.59;5200904;28;20021;-80
2022/09/24 07:42:06;;;;;;;22.20;20.00;;;;;;;-141.48;100.00;69781.59;5220261;28;20499;-80
2022/09/24 07:44:37;;;;;;;22.75;20.50;;;;;;;-141.48;100.00;69781.59;5201140;28;20052;-79
2022/09/24 07:47:07;;;;;;;27.33;24.63;;;;;;;-141.48;100.00;69781.59;5220488;28;20029;-79
2022/09/24 07:49:38;;;;;;;25.17;22.88;;;;;;;-141.48;100.00;69781.59;5221377;28;20085;-81
2022/09/24 07:52:10;;;;;;;26.60;24.00;;;;;;;-141.48;100.00;69781.59;5219464;28;20037;-79
2022/09/24 07:54:40;;;;;;;25.90;23.50;;;;;;;-141.48;100.00;69781.59;5218529;28;20032;-81
2022/09/24 07:57:12;;;;;;;24.98;22.73;;;;;;;-141.48;100.00;69781.59;5202438;28;20286;-80
2022/09/24 07:59:43;;;;;;;25.40;23.05;;;;;;;-141.48;100.00;69781.59;5201078;28;20033;-81
2022/09/24 08:02:17;;;;;;;24.25;21.70;;;;;;;-141.48;100.00;69781.59;5200693;28;20033;-80
2022/09/24 08:04:48;;;;;;;24.85;22.50;;;;;;;-141.48;100.00;69781.59;5217387;28;20029;-81
2022/09/24 08:07:18;;;;;;;26.55;24.15;;;;;;;-141.48;100.00;69781.59;5218799;28;20097;-81
2022/09/24 08:09:49;;;;;;;25.23;23.13;;;;;;;-141.48;100.00;69781.59;5220097;28;20029;-79
2022/09/24 08:12:19;;;;;;;29.50;26.48;;;;;;;-141.48;100.00;69781.59;5204407;28;20025;-80
2022/09/24 08:14:50;;;;;;;25.27;23.13;;;;;;;-141.48;100.00;69781.59;5223062;28;20087;-81
2022/09/24 08:17:21;;;;;;;23.63;21.63;;;;;;;-141.48;100.00;69781.59;5205909;28;20025;-80
2022/09/24 08:19:55;;;;;;;28.83;25.17;;;;;;;-141.48;100.00;69781.59;5208207;28;20029;-81
2022/09/24 08:22:26;;;;;;;27.67;25.05;;;;;;;-141.48;100.00;69781.59;5224889;28;20052;-82
2022/09/24 08:24:56;;;;;;;23.98;21.77;;;;;;;-141.48;100.00;69781.59;5224381;28;20029;-80
2022/09/24 08:27:27;;;;;;;25.75;23.00;;;;;;;-141.48;100.00;69781.59;5226617;28;20039;-81
2022/09/24 08:29:59;;;;;;;25.83;23.15;;;;;;;-141.48;100.00;69781.59;5226633;28;20033;-80
2022/09/24 08:32:29;;;;;;;22.27;19.90;;;;;;;-141.48;100.00;69781.59;5208776;28;20045;-80
2022/09/24 08:35:00;;;;;;;25.98;22.08;;;;;;;-141.48;100.00;69781.59;5224332;28;20021;-80
2022/09/24 08:37:30;;;;;;;24.05;21.67;;;;;;;-141.48;100.00;69781.59;5225341;28;20025;-80
2022/09/24 08:40:02;;;;;;;25.20;22.88;;;;;;;-141.48;100.00;69781.59;5223948;28;20026;-81
2022/09/24 08:42:49;;;;;;;24.88;21.42;;;;;;;-141.48;100.00;69781.59;5223844;28;20490;-79
2022/09/24 08:48:19;;;;;;;22.38;20.25;;;;;;;-141.48;100.00;69781.59;5224438;28;20038;-79
2022/09/24 08:50:56;;;;;;;;;;;;;;;-141.48;100.00;69781.59;5222538;28;20543;-78
2022/09/24 08:53:51;;;;;;;24.80;22.52;;;;;;;-141.48;100.00;69781.59;5221958;28;19909;-80
2022/09/24 08:56:28;;;;;;;26.88;24.17;;;;;;;-141.48;100.00;69781.59;5220812;28;20045;-78
2022/09/24 08:59:00;;;;;;;21.67;19.42;;;;;;;-141.48;100.00;69781.59;5221186;28;20025;-80
2022/09/24 09:01:52;;;;;;;21.42;19.33;;;;;;;-141.48;100.00;69781.59;5222184;28;20026;-79
2022/09/24 09:04:37;;;;;;;23.45;21.23;;;;;;;-141.48;100.00;69781.59;5221997;28;20455;-80
2022/09/24 09:07:19;;;;;;;21.75;19.65;;;;;;;-141.48;100.00;69781.59;5200124;28;20097;-79
2022/09/24 09:10:10;;;;;;;24.17;21.63;;;;;;;-141.48;100.00;69781.59;5221828;28;20057;-79
2022/09/24 09:12:46;;;;;;;22.23;19.88;;;;;;;-141.48;100.00;69781.59;5217890;28;20025;-80
2022/09/24 09:15:19;;;;;;;21.83;19.73;;;;;;;-141.48;100.00;69781.59;5217269;28;20387;-79
2022/09/24 09:18:01;;;;;;;22.40;19.95;;;;;;;-141.48;100.00;69781.59;5220654;28;20025;-80
2022/09/24 09:20:39;;;;;;;22.42;20.20;;;;;;;-141.48;100.00;69781.59;5201055;28;20029;-79
2022/09/24 09:23:18;;;;;;;24.90;22.30;;;;;;;-141.48;100.00;69781.59;5220774;28;20028;-79
2022/09/24 09:25:55;;;;;;;20.60;18.80;;;;;;;-141.48;100.00;69781.59;5218905;28;20025;-80
2022/09/24 09:28:26;;;;;;;19.90;18.13;;;;;;;-141.48;100.00;69781.59;5218175;28;20021;-80
2022/09/24 09:31:21;;;;;;;21.38;19.27;;;;;;;-141.48;100.00;69781.59;5198847;28;20495;-78
2022/09/24 09:34:12;;;;;;;21.83;18.67;;;;;;;-141.48;100.00;69781.59;5238535;23;20542;-93
2022/09/24 09:37:19;;;;;;;22.65;20.55;;;;;;;-141.48;100.00;69781.59;5216802;28;20030;-93
2022/09/24 09:40:11;;;;;;;21.05;19.08;;;;;;;-141.48;100.00;69781.59;5212041;28;20025;-93
2022/09/24 09:43:03;;;;;;;23.60;21.45;;;;;;;-141.48;100.00;69781.59;5211488;28;20109;-94
2022/09/24 09:46:09;;;;;;;;;;;;;;;;;;;;;
2022/09/24 09:49:04;;;;;;;22.95;20.52;;;;;;;-141.48;100.00;69781.59;5191397;28;20112;-92
2022/09/24 09:51:40;;;;;;;19.98;18.25;;;;;;;-141.48;100.00;69781.59;5191645;28;20392;-92
2022/09/24 09:54:11;;;;;;;26.42;23.70;;;;;;;-141.48;100.00;69781.59;5190043;28;20105;-91
2022/09/24 09:56:46;;;;;;;23.52;21.20;;;;;;;-141.48;100.00;69781.59;5189876;28;20121;-92
2022/09/24 09:59:20;;;;;;;24.60;22.38;;;;;;;-141.48;100.00;69781.59;5189695;28;20032;-92
2022/09/24 10:01:55;;;;;;;23.60;21.27;;;;;;;-141.48;100.00;69781.59;5189338;28;20087;-92
2022/09/24 10:04:40;;;;;;;19.58;17.67;;;;;;;-141.48;100.00;69781.59;5189702;28;20050;-91
2022/09/24 10:07:13;;;;;;;22.25;20.15;;;;;;;-141.48;100.00;69781.59;5189050;28;20033;-91
2022/09/24 10:09:45;;;;;;;24.23;15.95;;;;;;;-141.48;100.00;69781.59;5189471;28;20026;-91
2022/09/24 10:12:21;;;;;;;20.48;18.27;;;;;;;-141.48;100.00;69781.59;5189674;28;20405;-92
2022/09/24 10:15:18;;;;;;;22.92;19.08;;;;;;;-141.48;100.00;69781.59;5189438;28;20030;-93
2022/09/24 10:17:53;;;;;;;17.55;16.13;;;;;;;-141.48;100.00;69781.59;5191158;28;20025;-93
2022/09/24 10:20:30;;;;;;;18.77;16.83;;;;;;;-141.48;100.00;69781.59;5191935;28;20097;-94
2022/09/24 10:23:15;;;;;;;20.48;18.55;;;;;;;-141.48;100.00;69781.59;5190840;28;20076;-92
2022/09/24 10:26:01;;;;;;;22.30;18.13;;;;;;;-141.48;100.00;69781.59;5190749;28;20171;-93
2022/09/24 10:31:36;;;;;;;17.77;15.57;;;;;;;-141.48;100.00;69781.59;5174080;28;20041;-91
2022/09/24 10:34:25;;;;;;;19.80;18.13;;;;;;;-141.48;100.00;69781.59;5191418;28;20065;-93
2022/09/24 10:37:18;;;;;;;20.85;18.77;;;;;;;-141.48;100.00;69781.59;5196485;28;20036;-92
2022/09/24 10:40:29;;;;;;;16.52;14.82;;;;;;;-141.48;100.00;69781.59;5190786;28;20091;-92
2022/09/24 10:43:01;;;;;;;17.98;16.30;;;;;;;-141.48;100.00;69781.59;5140993;28;20045;-91
2022/09/24 10:45:53;;;;;;;16.67;15.15;;;;;;;-141.48;100.00;69781.59;5186102;28;20518;-91
2022/09/24 10:48:34;;;;;;;17.67;15.63;;;;;;;-141.48;100.00;69781.59;5188729;28;20504;-94
2022/09/24 10:51:12;;;;;;;17.48;16.08;;;;;;;-141.48;100.00;69781.59;5186622;28;20092;-91
2022/09/24 10:54:16;;;;;;;18.17;14.90;;;;;;;-141.48;100.00;69781.59;5186558;28;20033;-92
2022/09/24 10:56:50;;;;;;;17.50;15.70;;;;;;;-141.48;100.00;69781.59;5187185;28;20045;-92
2022/09/24 11:00:02;;;;;;;16.88;15.45;;;;;;;-141.48;100.00;69781.59;5187994;28;20032;-92
2022/09/24 11:03:04;;;;;;;17.83;13.38;;;;;;;-141.48;100.00;69781.59;5187279;28;20026;-92
2022/09/24 11:05:51;;;;;;;17.80;15.52;;;;;;;-141.48;100.00;69781.59;5166599;28;20057;-92
2022/09/24 11:08:45;;;;;;;17.35;15.75;;;;;;;-141.48;100.00;69781.59;5187980;28;20061;-92
2022/09/24 11:11:44;;;;;;;14.35;12.95;;;;;;;-141.48;100.00;69781.59;5187692;28;20042;-91
2022/09/24 11:14:53;;;;;;;18.60;14.07;;;;;;;-141.48;100.00;69781.59;5188066;28;20033;-93
2022/09/24 11:17:26;;;;;;;16.90;15.35;;;;;;;-141.48;100.00;69781.59;5120511;28;20072;-93
2022/09/24 11:20:38;;;;;;;15.00;13.68;;;;;;;-141.48;100.00;69781.59;5192211;28;20037;-93
2022/09/24 11:23:36;;;;;;;17.60;15.00;;;;;;;-141.48;100.00;69781.59;5207040;28;20034;-94
2022/09/24 11:26:42;;;;;;;16.60;14.98;;;;;;;-141.48;100.00;69781.59;5211113;28;20025;-93
2022/09/24 11:29:51;;;;;;;16.65;14.48;;;;;;;-141.48;100.00;69781.59;5128408;28;20036;-93
2022/09/24 11:32:43;;;;;;;16.73;14.73;;;;;;;-141.48;100.00;69781.59;5197792;28;20113;-93
2022/09/24 11:35:38;;;;;;;16.55;14.95;;;;;;;-141.48;100.00;69781.59;5209067;28;20018;-92
2022/09/24 11:38:18;;;;;;;15.45;13.95;;;;;;;-141.48;100.00;69781.59;5206232;28;20057;-93
2022/09/24 11:41:34;;;;;;;17.13;14.68;;;;;;;-141.48;100.00;69781.59;5195870;28;20090;-92
2022/09/24 11:44:26;;;;;;;16.50;14.85;;;;;;;-141.48;100.00;69781.59;5222172;22;20059;-65
2022/09/24 11:47:15;;;;;;;16.13;14.77;;;;;;;-141.48;100.00;69781.59;5222347;28;20425;-64
2022/09/24 11:50:04;;;;;;;15.45;14.10;;;;;;;-141.48;100.00;69781.59;5222924;28;20488;-63
2022/09/24 11:53:15;;;;;;;13.35;12.25;;;;;;;-141.48;100.00;69781.59;5223065;28;20285;-64